createdAt,value
2024-01-06T00:02:00.627Z,6.45
2024-01-06T00:04:27.167Z,6.22
2024-01-06T00:06:53.498Z,7.03
2024-01-06T00:09:19.707Z,8.52
2024-01-06T00:11:45.909Z,8.45
2024-01-06T00:14:12.071Z,8.60
2024-01-06T00:16:38.226Z,9.45
2024-01-06T00:19:04.508Z,8.20
2024-01-06T00:21:30.912Z,9.77
2024-01-06T00:23:57.100Z,7.88
2024-01-06T00:26:23.288Z,7.55
2024-01-06T00:28:49.481Z,6.57
2024-01-06T00:31:15.997Z,10.00
2024-01-06T00:33:42.294Z,7.50
2024-01-06T00:36:08.590Z,5.97
2024-01-06T00:38:34.770Z,7.03
2024-01-06T00:41:01.207Z,6.45
2024-01-06T00:43:27.650Z,7.53
2024-01-06T00:45:54.091Z,6.68
2024-01-06T00:48:20.688Z,6.93
2024-01-06T00:50:46.969Z,6.35
2024-01-06T00:53:13.239Z,6.38
2024-01-06T00:55:39.419Z,6.13
2024-01-06T00:58:05.824Z,9.75
2024-01-06T01:00:32.104Z,7.10
2024-01-06T01:02:58.320Z,7.97
2024-01-06T01:05:24.494Z,7.70
2024-01-06T01:07:50.709Z,8.02
2024-01-06T01:10:17.171Z,6.13
2024-01-06T01:12:43.382Z,8.23
2024-01-06T01:15:09.643Z,8.55
2024-01-06T01:17:35.942Z,9.38
2024-01-06T01:20:02.386Z,9.60
2024-01-06T01:22:28.584Z,7.93
2024-01-06T01:24:54.767Z,9.55
2024-01-06T01:27:20.944Z,6.22
2024-01-06T01:29:47.140Z,8.23
2024-01-06T01:32:13.638Z,9.77
2024-01-06T01:34:39.873Z,7.40
2024-01-06T01:37:06.133Z,8.50
2024-01-06T01:39:32.433Z,9.38
2024-01-06T01:41:58.574Z,7.88
2024-01-06T01:44:24.781Z,9.13
2024-01-06T01:46:50.958Z,8.57
2024-01-06T01:49:17.699Z,10.55
2024-01-06T01:51:44.075Z,10.85
2024-01-06T01:54:10.311Z,8.52
2024-01-06T01:56:36.522Z,8.55
2024-01-06T01:59:02.812Z,7.40
2024-01-06T02:01:29.289Z,10.13
2024-01-06T02:03:55.551Z,9.10
2024-01-06T02:06:21.804Z,6.18
2024-01-06T02:08:48.027Z,12.35
2024-01-06T02:11:14.470Z,8.05
2024-01-06T02:13:40.757Z,9.57
2024-01-06T02:16:06.971Z,12.30
2024-01-06T02:18:33.502Z,14.43
2024-01-06T02:20:59.864Z,15.05
2024-01-06T02:23:26.073Z,12.50
2024-01-06T02:25:52.254Z,14.13
2024-01-06T02:28:18.498Z,7.75
2024-01-06T02:30:44.830Z,8.20
2024-01-06T02:33:11.410Z,7.03
2024-01-06T02:35:37.626Z,8.52
2024-01-06T02:38:04.023Z,6.70
2024-01-06T02:40:30.267Z,7.10
2024-01-06T02:42:56.460Z,7.38
2024-01-06T02:45:22.967Z,5.88
2024-01-06T02:47:49.305Z,7.75
2024-01-06T02:50:15.794Z,7.70
2024-01-06T02:52:41.965Z,5.30
2024-01-06T02:55:08.383Z,6.55
2024-01-06T02:57:34.572Z,7.03
2024-01-06T03:00:00.736Z,6.50
2024-01-06T03:02:27.153Z,7.80
2024-01-06T03:04:53.584Z,5.88
2024-01-06T03:07:19.981Z,7.43
2024-01-06T03:09:46.504Z,7.45
2024-01-06T03:12:12.817Z,6.97
2024-01-06T03:14:38.996Z,6.10
2024-01-06T03:17:05.420Z,8.35
2024-01-06T03:19:32.000Z,5.10
2024-01-06T03:21:58.543Z,5.82
2024-01-06T03:24:24.963Z,5.82
2024-01-06T03:26:51.148Z,5.72
2024-01-06T03:29:17.322Z,6.30
2024-01-06T03:31:43.663Z,6.28
2024-01-06T03:34:09.986Z,6.18
2024-01-06T03:36:36.257Z,8.35
2024-01-06T03:39:02.424Z,7.45
2024-01-06T03:41:28.581Z,5.55
2024-01-06T03:43:54.777Z,7.20
2024-01-06T03:46:21.166Z,8.98
2024-01-06T03:48:47.491Z,7.50
2024-01-06T03:51:13.823Z,7.95
2024-01-06T03:53:40.014Z,9.60
2024-01-06T03:56:06.360Z,7.95
2024-01-06T03:58:32.621Z,9.55
2024-01-06T04:00:58.843Z,9.63
2024-01-06T04:03:25.038Z,9.30
2024-01-06T04:05:51.512Z,8.10
2024-01-06T04:08:17.987Z,11.60
2024-01-06T04:10:44.207Z,10.10
2024-01-06T04:13:10.611Z,11.32
2024-01-06T04:15:36.885Z,10.75
2024-01-06T04:18:03.201Z,11.40
2024-01-06T04:20:29.403Z,11.85
2024-01-06T04:22:55.554Z,12.25
2024-01-06T04:25:21.695Z,14.23
2024-01-06T04:27:47.940Z,13.05
2024-01-06T04:30:14.559Z,15.68
2024-01-06T04:32:41.019Z,13.32
2024-01-06T04:35:07.223Z,13.38
2024-01-06T04:37:33.637Z,16.02
2024-01-06T04:40:00.118Z,14.57
2024-01-06T04:42:26.548Z,17.65
2024-01-06T04:44:52.746Z,15.05
2024-01-06T04:47:18.893Z,17.00
2024-01-06T04:49:45.144Z,14.32
2024-01-06T04:52:11.395Z,17.33
2024-01-06T04:54:37.764Z,18.60
2024-01-06T04:57:04.088Z,18.77
2024-01-06T04:59:30.259Z,19.98
2024-01-06T05:01:56.508Z,19.23
2024-01-06T05:04:22.972Z,20.83
2024-01-06T05:06:49.295Z,9.02
2024-01-06T05:09:15.589Z,21.30
2024-01-06T05:11:42.031Z,19.60
2024-01-06T05:14:08.204Z,21.13
2024-01-06T05:16:34.630Z,19.35
2024-01-06T05:19:00.938Z,19.30
2024-01-06T05:21:27.451Z,18.98
2024-01-06T05:23:53.906Z,18.13
2024-01-06T05:26:20.313Z,16.63
2024-01-06T05:28:46.484Z,20.40
2024-01-06T05:31:12.707Z,17.38
2024-01-06T05:33:39.280Z,20.38
2024-01-06T05:36:05.495Z,15.57
2024-01-06T05:38:31.669Z,18.08
2024-01-06T05:40:58.144Z,18.67
2024-01-06T05:43:24.347Z,18.88
2024-01-06T05:45:50.685Z,15.35
2024-01-06T05:48:16.977Z,16.20
2024-01-06T05:50:43.316Z,14.75
2024-01-06T05:53:09.588Z,18.98
2024-01-06T05:55:35.864Z,18.85
2024-01-06T05:58:02.260Z,14.15
2024-01-06T06:00:28.504Z,15.18
2024-01-06T06:02:54.698Z,14.68
2024-01-06T06:05:20.851Z,15.68
2024-01-06T06:07:47.038Z,17.38
2024-01-06T06:10:13.354Z,14.18
2024-01-06T06:12:39.733Z,14.88
2024-01-06T06:15:06.179Z,16.45
2024-01-06T06:17:32.512Z,14.23
2024-01-06T06:19:58.802Z,17.75
2024-01-06T06:22:25.017Z,13.52
2024-01-06T06:24:51.444Z,15.45
2024-01-06T06:27:17.901Z,13.05
2024-01-06T06:29:44.189Z,11.68
2024-01-06T06:32:10.347Z,14.18
2024-01-06T06:34:36.552Z,11.38
2024-01-06T06:37:02.868Z,12.27
2024-01-06T06:39:29.037Z,11.90
2024-01-06T06:41:55.267Z,12.65
2024-01-06T06:44:26.052Z,12.18
2024-01-06T06:46:52.332Z,13.05
2024-01-06T06:49:18.568Z,13.77
2024-01-06T06:51:44.886Z,13.40
2024-01-06T06:54:11.202Z,13.25
2024-01-06T06:56:37.427Z,12.75
2024-01-06T06:59:03.869Z,14.82
2024-01-06T07:01:32.259Z,13.85
2024-01-06T07:03:59.774Z,15.52
2024-01-06T07:06:26.020Z,14.32
2024-01-06T07:08:52.464Z,13.25
2024-01-06T07:11:18.610Z,14.35
2024-01-06T07:13:44.768Z,13.30
2024-01-06T07:16:17.999Z,15.38
2024-01-06T07:18:45.840Z,16.35
2024-01-06T07:21:12.398Z,14.85
2024-01-06T07:23:38.590Z,12.85
2024-01-06T07:26:04.851Z,14.98
2024-01-06T07:28:31.147Z,14.45
2024-01-06T07:30:57.520Z,14.32
2024-01-06T07:33:23.846Z,10.63
2024-01-06T07:35:50.082Z,13.88
2024-01-06T07:38:16.288Z,10.75
2024-01-06T07:40:42.526Z,13.88
2024-01-06T07:43:08.724Z,13.40
2024-01-06T07:45:35.154Z,12.40
2024-01-06T07:48:01.498Z,12.95
2024-01-06T07:50:27.718Z,11.73
2024-01-06T07:52:54.143Z,11.88
2024-01-06T07:55:20.405Z,12.20
2024-01-06T07:57:46.575Z,12.27
2024-01-06T08:00:12.802Z,11.95
2024-01-06T08:02:39.308Z,13.80
2024-01-06T08:05:05.486Z,10.90
2024-01-06T08:07:31.663Z,10.43
2024-01-06T08:09:57.899Z,13.30
2024-01-06T08:12:24.170Z,16.63
2024-01-06T08:14:50.381Z,13.60
2024-01-06T08:17:19.505Z,15.65
2024-01-06T08:19:46.162Z,11.90
2024-01-06T08:22:12.385Z,12.73
2024-01-06T08:24:38.578Z,14.00
2024-01-06T08:27:04.852Z,12.20
2024-01-06T08:29:31.282Z,14.68
2024-01-06T08:31:57.660Z,15.88
2024-01-06T08:34:24.390Z,15.75
2024-01-06T08:36:50.682Z,16.55
2024-01-06T08:39:16.996Z,16.70
2024-01-06T08:41:43.528Z,15.82
2024-01-06T08:44:09.695Z,16.63
2024-01-06T08:46:35.905Z,17.33
2024-01-06T08:49:02.181Z,15.65
2024-01-06T08:51:28.492Z,14.93
2024-01-06T08:53:55.063Z,14.40
2024-01-06T08:56:21.256Z,13.68
2024-01-06T08:58:47.410Z,15.60
2024-01-06T09:01:13.719Z,14.82
2024-01-06T09:03:40.190Z,16.73
2024-01-06T09:06:06.511Z,14.20
2024-01-06T09:08:32.827Z,16.52
2024-01-06T09:10:58.993Z,14.02
2024-01-06T09:13:25.142Z,16.20
2024-01-06T09:15:51.323Z,13.18
2024-01-06T09:18:17.743Z,10.75
2024-01-06T09:20:44.304Z,15.00
2024-01-06T09:23:10.453Z,15.40
2024-01-06T09:25:36.894Z,18.00
2024-01-06T09:28:03.103Z,16.83
2024-01-06T09:30:29.443Z,12.20
2024-01-06T09:32:55.706Z,19.15
2024-01-06T09:35:21.987Z,16.70
2024-01-06T09:37:48.194Z,17.95
2024-01-06T09:40:14.382Z,20.33
2024-01-06T09:42:40.597Z,23.08
2024-01-06T09:45:06.842Z,25.17
2024-01-06T09:47:33.331Z,26.08
2024-01-06T09:49:59.559Z,18.92
2024-01-06T09:52:25.993Z,27.25
2024-01-06T09:54:52.486Z,22.83
2024-01-06T09:57:18.840Z,19.70
2024-01-06T09:59:45.302Z,20.30
2024-01-06T10:02:11.495Z,10.73
2024-01-06T10:04:37.862Z,20.42
2024-01-06T10:07:04.360Z,17.42
2024-01-06T10:09:30.637Z,13.63
2024-01-06T10:11:56.867Z,13.98
2024-01-06T10:14:23.031Z,14.00
2024-01-06T10:16:49.475Z,13.98
2024-01-06T10:19:15.713Z,10.55
2024-01-06T10:21:42.235Z,12.10
2024-01-06T10:24:08.501Z,8.70
2024-01-06T10:26:34.697Z,9.43
2024-01-06T10:29:00.836Z,10.55
2024-01-06T10:31:27.065Z,9.85
2024-01-06T10:33:53.520Z,9.80
2024-01-06T10:36:19.791Z,9.40
2024-01-06T10:38:45.976Z,9.48
2024-01-06T10:41:12.130Z,9.43
2024-01-06T10:43:38.289Z,9.77
2024-01-06T10:46:04.706Z,9.63
2024-01-06T10:48:30.970Z,9.82
2024-01-06T10:50:57.210Z,12.18
2024-01-06T10:53:23.414Z,9.40
2024-01-06T10:55:50.532Z,10.68
2024-01-06T10:58:17.787Z,11.38
2024-01-06T11:00:44.261Z,10.77
2024-01-06T11:03:10.534Z,13.60
2024-01-06T11:05:36.831Z,14.48
2024-01-06T11:08:03.162Z,22.98
2024-01-06T11:10:29.377Z,14.45
2024-01-06T11:12:55.586Z,12.70
2024-01-06T11:15:21.850Z,10.55
2024-01-06T11:17:48.381Z,12.75
2024-01-06T11:20:14.807Z,12.70
2024-01-06T11:22:41.429Z,12.15
2024-01-06T11:25:07.758Z,12.23
2024-01-06T11:27:34.003Z,13.70
2024-01-06T11:30:02.996Z,18.38
2024-01-06T11:32:29.223Z,24.00
2024-01-06T11:34:55.514Z,13.20
2024-01-06T11:37:21.724Z,15.23
2024-01-06T11:39:47.924Z,14.02
2024-01-06T11:42:14.136Z,9.30
2024-01-06T11:44:40.315Z,12.65
2024-01-06T11:47:06.494Z,12.88
2024-01-06T11:49:32.711Z,9.15
2024-01-06T11:51:58.993Z,16.00
2024-01-06T11:54:25.231Z,14.55
2024-01-06T11:56:51.651Z,17.90
2024-01-06T11:59:18.084Z,14.45
2024-01-06T12:01:44.367Z,18.10
2024-01-06T12:04:10.617Z,17.13
2024-01-06T12:06:36.923Z,12.25
2024-01-06T12:09:03.146Z,13.20
2024-01-06T12:11:29.340Z,12.98
2024-01-06T12:13:55.511Z,21.50
2024-01-06T12:16:21.682Z,18.23
2024-01-06T12:18:48.203Z,20.25
2024-01-06T12:21:14.721Z,10.77
2024-01-06T12:23:40.876Z,9.48
2024-01-06T12:26:07.080Z,12.55
2024-01-06T12:28:33.465Z,10.43
2024-01-06T12:30:59.707Z,13.05
2024-01-06T12:33:26.386Z,14.13
2024-01-06T12:35:52.609Z,11.15
2024-01-06T12:38:18.765Z,12.00
2024-01-06T12:40:44.946Z,11.35
2024-01-06T12:43:11.342Z,13.90
2024-01-06T12:45:37.557Z,14.80
2024-01-06T12:48:03.945Z,14.65
2024-01-06T12:50:30.352Z,18.35
2024-01-06T12:52:56.532Z,18.23
2024-01-06T12:55:22.904Z,19.38
2024-01-06T12:57:49.154Z,17.75
2024-01-06T13:00:15.443Z,26.25
2024-01-06T13:02:41.677Z,15.00
2024-01-06T13:05:07.944Z,23.55
2024-01-06T13:07:34.161Z,19.77
2024-01-06T13:10:00.553Z,21.30
2024-01-06T13:12:26.767Z,17.95
2024-01-06T13:14:53.219Z,19.17
2024-01-06T13:17:19.752Z,15.25
2024-01-06T13:19:45.950Z,18.23
2024-01-06T13:22:12.390Z,18.73
2024-01-06T13:24:38.594Z,17.65
2024-01-06T13:27:04.768Z,15.68
2024-01-06T13:29:30.914Z,15.88
2024-01-06T13:31:57.407Z,18.65
2024-01-06T13:34:24.023Z,15.30
2024-01-06T13:36:50.292Z,17.85
2024-01-06T13:39:16.556Z,15.38
2024-01-06T13:41:42.833Z,15.48
2024-01-06T13:44:09.038Z,15.93
2024-01-06T13:46:35.200Z,13.27
2024-01-06T13:49:01.473Z,13.90
2024-01-06T13:51:27.677Z,15.35
2024-01-06T13:53:54.067Z,15.15
2024-01-06T13:56:20.240Z,16.58
2024-01-06T13:58:46.391Z,18.27
2024-01-06T14:01:12.997Z,18.80
2024-01-06T14:03:39.312Z,27.10
2024-01-06T14:06:05.647Z,17.75
2024-01-06T14:08:31.894Z,12.63
2024-01-06T14:10:58.054Z,14.95
2024-01-06T14:13:24.232Z,16.52
2024-01-06T14:15:50.545Z,16.30
2024-01-06T14:18:16.856Z,14.02
2024-01-06T14:20:43.106Z,12.57
2024-01-06T14:23:09.287Z,15.52
2024-01-06T14:25:35.503Z,12.57
2024-01-06T14:28:01.708Z,12.60
2024-01-06T14:30:28.386Z,16.48
2024-01-06T14:32:54.784Z,13.02
2024-01-06T14:35:20.969Z,12.23
2024-01-06T14:37:47.392Z,13.88
2024-01-06T14:40:13.590Z,14.00
2024-01-06T14:42:39.809Z,11.55
2024-01-06T14:45:06.258Z,12.38
2024-01-06T14:47:32.469Z,12.20
2024-01-06T14:49:58.766Z,13.43
2024-01-06T14:52:25.056Z,14.63
2024-01-06T14:54:51.309Z,14.02
2024-01-06T14:57:17.802Z,12.70
2024-01-06T14:59:44.286Z,13.88
2024-01-06T15:02:10.531Z,12.75
2024-01-06T15:04:36.747Z,14.13
2024-01-06T15:07:03.017Z,15.27
2024-01-06T15:09:29.370Z,15.02
2024-01-06T15:11:55.564Z,12.55
2024-01-06T15:14:21.800Z,14.23
2024-01-06T15:16:48.192Z,15.13
2024-01-06T15:19:14.652Z,14.75
2024-01-06T15:21:40.860Z,9.63
2024-01-06T15:24:07.098Z,11.68
2024-01-06T15:26:33.308Z,13.88
2024-01-06T15:28:59.583Z,11.40
2024-01-06T15:31:26.095Z,10.90
2024-01-06T15:33:52.489Z,10.50
2024-01-06T15:36:18.761Z,9.27
2024-01-06T15:38:45.123Z,12.18
2024-01-06T15:41:11.565Z,9.02
2024-01-06T15:43:37.988Z,8.07
2024-01-06T15:46:04.247Z,11.40
2024-01-06T15:48:30.529Z,8.32
2024-01-06T15:50:56.747Z,7.97
2024-01-06T15:53:22.937Z,7.03
2024-01-06T15:55:49.115Z,8.10
2024-01-06T15:58:15.281Z,5.00
2024-01-06T16:00:41.531Z,8.70
2024-01-06T16:03:07.977Z,7.78
2024-01-06T16:05:34.451Z,6.93
2024-01-06T16:08:00.635Z,8.07
2024-01-06T16:10:26.786Z,10.48
2024-01-06T16:12:53.274Z,8.45
2024-01-06T16:15:19.539Z,9.30
2024-01-06T16:17:45.832Z,9.85
2024-01-06T16:20:12.469Z,8.52
2024-01-06T16:22:38.668Z,9.40
2024-01-06T16:25:04.979Z,7.00
2024-01-06T16:27:31.539Z,7.35
2024-01-06T16:29:57.697Z,5.55
2024-01-06T16:32:23.886Z,8.05
2024-01-06T16:34:50.151Z,8.30
2024-01-06T16:37:16.448Z,9.52
2024-01-06T16:39:42.642Z,9.57
2024-01-06T16:42:09.067Z,9.60
2024-01-06T16:44:35.520Z,8.10
2024-01-06T16:47:01.717Z,10.88
2024-01-06T16:49:27.890Z,8.90
2024-01-06T16:51:54.156Z,8.20
2024-01-06T16:54:20.382Z,9.15
2024-01-06T16:56:46.557Z,11.52
2024-01-06T16:59:16.537Z,6.68
2024-01-06T17:01:43.386Z,8.75
2024-01-06T17:04:09.637Z,8.50
2024-01-06T17:06:35.913Z,7.18
2024-01-06T17:09:02.130Z,7.20
2024-01-06T17:11:28.313Z,7.38
2024-01-06T17:13:54.455Z,10.18
2024-01-06T17:16:20.637Z,9.98
2024-01-06T17:18:47.121Z,5.65
2024-01-06T17:21:13.424Z,10.00
2024-01-06T17:23:39.575Z,8.13
2024-01-06T17:26:05.804Z,11.23
2024-01-06T17:28:32.027Z,8.25
2024-01-06T17:30:58.270Z,9.15
2024-01-06T17:33:24.898Z,8.48
2024-01-06T17:35:51.237Z,5.10
2024-01-06T17:38:17.534Z,11.25
2024-01-06T17:40:43.854Z,9.30
2024-01-06T17:43:10.283Z,9.60
2024-01-06T17:45:36.582Z,10.93
2024-01-06T17:48:02.914Z,9.52
2024-01-06T17:50:29.274Z,11.88
2024-01-06T17:52:55.488Z,10.90
2024-01-06T17:55:21.897Z,12.35
2024-01-06T17:57:48.219Z,8.43
2024-01-06T18:00:14.432Z,8.95
2024-01-06T18:02:40.648Z,7.50
2024-01-06T18:05:07.208Z,7.63
2024-01-06T18:07:33.480Z,8.20
2024-01-06T18:09:59.882Z,10.48
2024-01-06T18:12:26.449Z,9.60
2024-01-06T18:14:52.647Z,5.47
2024-01-06T18:17:18.894Z,5.97
2024-01-06T18:19:45.239Z,11.85
2024-01-06T18:22:11.578Z,9.10
2024-01-06T18:24:37.855Z,8.43
2024-01-06T18:27:04.033Z,10.50
2024-01-06T18:29:30.340Z,8.30
2024-01-06T18:31:56.516Z,10.25
2024-01-06T18:34:23.003Z,12.10
2024-01-06T18:36:49.292Z,12.57
2024-01-06T18:39:15.490Z,7.40
2024-01-06T18:41:41.762Z,14.50
2024-01-06T18:44:07.930Z,11.77
2024-01-06T18:46:34.350Z,12.55
2024-01-06T18:49:00.605Z,11.20
2024-01-06T18:51:26.870Z,9.88
2024-01-06T18:53:53.094Z,12.75
2024-01-06T18:56:19.295Z,13.73
2024-01-06T18:58:45.455Z,13.88
2024-01-06T19:01:11.738Z,13.40
2024-01-06T19:03:37.983Z,11.18
2024-01-06T19:06:04.212Z,14.93
2024-01-06T19:08:30.433Z,13.73
2024-01-06T19:10:56.594Z,18.00
2024-01-06T19:13:22.785Z,19.70
2024-01-06T19:15:48.968Z,13.15
2024-01-06T19:18:15.434Z,19.17
2024-01-06T19:20:41.999Z,16.00
2024-01-06T19:23:09.951Z,17.63
2024-01-06T19:25:36.733Z,21.30
2024-01-06T19:28:03.115Z,22.42
2024-01-06T19:30:29.375Z,19.30
2024-01-06T19:32:55.663Z,19.35
2024-01-06T19:35:21.839Z,17.55
2024-01-06T19:37:48.039Z,17.80
2024-01-06T19:40:14.278Z,20.35
2024-01-06T19:42:40.650Z,17.83
2024-01-06T19:45:06.900Z,15.55
2024-01-06T19:47:33.140Z,16.30
2024-01-06T19:49:59.465Z,18.60
2024-01-06T19:52:25.971Z,18.52
2024-01-06T19:54:52.480Z,13.50
2024-01-06T19:57:18.976Z,18.33
2024-01-06T19:59:45.216Z,14.07
2024-01-06T20:02:11.363Z,17.08
2024-01-06T20:04:37.733Z,11.38
2024-01-06T20:07:04.074Z,13.77
2024-01-06T20:09:30.346Z,16.10
2024-01-06T20:11:56.529Z,12.52
2024-01-06T20:14:22.700Z,12.32
2024-01-06T20:16:48.878Z,17.33
2024-01-06T20:19:15.156Z,10.93
2024-01-06T20:21:41.385Z,14.43
2024-01-06T20:24:07.824Z,14.85
2024-01-06T20:26:34.090Z,14.07
2024-01-06T20:29:00.510Z,13.48
2024-01-06T20:31:26.800Z,15.05
2024-01-06T20:33:53.085Z,13.98
2024-01-06T20:36:19.628Z,13.85
2024-01-06T20:38:45.894Z,12.27
2024-01-06T20:41:12.346Z,12.23
2024-01-06T20:43:38.672Z,16.95
2024-01-06T20:46:05.135Z,26.50
2024-01-06T20:48:31.549Z,22.30
2024-01-06T20:50:57.775Z,14.10
2024-01-06T20:53:23.940Z,15.80
2024-01-06T20:55:50.149Z,12.93
2024-01-06T20:58:16.408Z,14.75
2024-01-06T21:00:42.784Z,20.05
2024-01-06T21:03:09.283Z,17.13
2024-01-06T21:05:35.434Z,16.80
2024-01-06T21:08:01.610Z,18.00
2024-01-06T21:10:27.802Z,14.98
2024-01-06T21:12:54.051Z,16.42
2024-01-06T21:15:20.372Z,18.65
2024-01-06T21:17:46.627Z,14.23
2024-01-06T21:20:12.803Z,16.13
2024-01-06T21:22:39.087Z,21.15
2024-01-06T21:25:05.421Z,19.90
2024-01-06T21:27:31.669Z,26.98
2024-01-06T21:29:58.128Z,22.25
2024-01-06T21:32:24.493Z,21.40
2024-01-06T21:34:50.749Z,24.80
2024-01-06T21:37:17.226Z,22.02
2024-01-06T21:39:43.479Z,16.85
2024-01-06T21:42:09.686Z,13.90
2024-01-06T21:44:35.908Z,19.45
2024-01-06T21:47:04.124Z,18.67
2024-01-06T21:49:30.980Z,16.42
2024-01-06T21:51:57.305Z,18.60
2024-01-06T21:54:23.543Z,23.33
2024-01-06T21:56:49.924Z,19.17
2024-01-06T21:59:16.145Z,21.33
2024-01-06T22:01:42.578Z,24.67
2024-01-06T22:04:09.168Z,13.77
2024-01-06T22:06:35.389Z,17.55
2024-01-06T22:09:10.496Z,18.52
2024-01-06T22:11:38.978Z,21.05
2024-01-06T22:14:05.192Z,14.57
2024-01-06T22:16:31.397Z,13.13
2024-01-06T22:18:57.712Z,13.45
2024-01-06T22:21:23.987Z,16.95
2024-01-06T22:23:50.167Z,14.30
2024-01-06T22:26:16.410Z,16.45
2024-01-06T22:28:42.650Z,15.82
2024-01-06T22:31:09.015Z,16.17
2024-01-06T22:33:35.281Z,14.82
2024-01-06T22:36:01.506Z,15.70
2024-01-06T22:38:30.489Z,14.93
2024-01-06T22:40:59.455Z,18.13
2024-01-06T22:43:25.952Z,14.80
2024-01-06T22:45:52.147Z,15.50
2024-01-06T22:48:18.432Z,15.02
2024-01-06T22:50:44.657Z,14.88
2024-01-06T22:53:11.065Z,10.90
2024-01-06T22:55:37.278Z,14.02
2024-01-06T22:58:03.577Z,19.15
2024-01-06T23:00:30.064Z,14.65
2024-01-06T23:02:56.547Z,11.07
2024-01-06T23:05:22.702Z,18.08
2024-01-06T23:07:48.870Z,16.10
2024-01-06T23:10:15.088Z,13.90
2024-01-06T23:12:41.255Z,10.48
2024-01-06T23:15:07.700Z,11.52
2024-01-06T23:17:33.888Z,14.85
2024-01-06T23:20:00.419Z,15.05
2024-01-06T23:22:26.606Z,15.40
2024-01-06T23:24:52.839Z,10.52
2024-01-06T23:27:19.029Z,11.98
2024-01-06T23:29:45.291Z,11.25
2024-01-06T23:32:11.526Z,11.75
2024-01-06T23:34:42.623Z,5.95
2024-01-06T23:37:09.655Z,9.15
2024-01-06T23:39:35.849Z,12.63
2024-01-06T23:42:01.998Z,9.50
2024-01-06T23:44:28.142Z,8.13
2024-01-06T23:46:54.306Z,11.38
2024-01-06T23:49:20.783Z,9.77
2024-01-06T23:51:47.038Z,13.25
2024-01-06T23:54:13.453Z,13.10
2024-01-06T23:56:39.771Z,10.75
2024-01-06T23:59:05.914Z,13.15
